Time;durP1;ratioP1;P1;durP2;ratioP2;P2;SDS_P1;SDS_P2;PMS_P1;PMS_P2;Temp;Humidity;BMP_temperature;BMP_pressure;BME280_temperature;BME280_humidity;BME280_pressure;Samples;Min_cycle;Max_cycle;Signal;HPM_P1;HPM_P2
2024/01/14 00:00:11;;;;;;;21.90;16.50;;;;;;;5.57;45.75;101430.63;106662;1262;25343;-51
2024/01/14 00:02:39;;;;;;;20.90;16.90;;;;;;;5.60;45.80;101428.09;106712;1259;24373;-52
2024/01/14 00:05:07;;;;;;;23.40;17.10;;;;;;;5.61;45.55;101424.14;106071;1257;1003239;-52
2024/01/14 00:07:36;;;;;;;23.90;15.70;;;;;;;5.62;45.47;101429.48;106742;1256;25383;-52
2024/01/14 00:10:04;;;;;;;23.10;15.80;;;;;;;5.60;45.40;101428.94;106718;1261;25335;-52
2024/01/14 00:12:31;;;;;;;26.10;16.80;;;;;;;5.58;45.46;101425.47;106725;1260;22531;-52
2024/01/14 00:14:58;;;;;;;22.20;15.60;;;;;;;5.54;45.31;101428.20;106025;1260;1003701;-52
2024/01/14 00:17:26;;;;;;;24.10;16.40;;;;;;;5.48;45.43;101426.07;106697;1260;22579;-51
2024/01/14 00:19:55;;;;;;;22.30;15.60;;;;;;;5.43;45.44;101424.48;106829;1261;23206;-52
2024/01/14 00:22:21;;;;;;;23.50;16.60;;;;;;;5.40;45.53;101429.61;106479;1265;22530;-52
2024/01/14 00:24:49;;;;;;;22.50;16.60;;;;;;;5.39;45.79;101419.11;106782;1261;24243;-52
2024/01/14 00:27:17;;;;;;;24.50;17.60;;;;;;;5.42;45.76;101414.66;106776;1260;25415;-52
2024/01/14 00:29:45;;;;;;;22.00;16.30;;;;;;;5.45;45.70;101408.83;106725;1260;22659;-52
2024/01/14 00:32:12;;;;;;;20.70;15.40;;;;;;;5.47;45.69;101401.11;106522;1275;25415;-52
2024/01/14 00:34:42;;;;;;;22.70;14.60;;;;;;;5.47;45.76;101402.14;106749;1260;25318;-52
2024/01/14 00:37:08;;;;;;;24.90;16.20;;;;;;;5.47;45.70;101396.80;105762;1264;1003137;-52
2024/01/14 00:39:39;;;;;;;27.50;17.00;;;;;;;5.46;45.66;101399.73;106429;1257;25363;-51
2024/01/14 00:42:06;;;;;;;24.60;15.80;;;;;;;5.46;45.67;101408.16;105454;1278;1002710;-51
2024/01/14 00:44:33;;;;;;;23.40;16.80;;;;;;;5.46;45.87;101431.73;106499;1259;25339;-51
2024/01/14 00:47:01;;;;;;;23.10;15.80;;;;;;;5.46;45.94;101440.69;106199;1259;25492;-52
2024/01/14 00:49:28;;;;;;;23.10;16.20;;;;;;;5.47;45.89;101444.14;105700;1261;1003450;-50
2024/01/14 00:51:55;;;;;;;24.70;15.80;;;;;;;5.49;45.72;101442.95;106211;1265;25427;-51
2024/01/14 00:54:23;;;;;;;24.50;16.00;;;;;;;5.51;45.89;101432.12;106701;1259;25254;-51
2024/01/14 00:56:50;;;;;;;25.30;17.00;;;;;;;5.52;45.77;101424.91;106712;1262;25488;-51
2024/01/14 00:59:17;;;;;;;22.60;16.50;;;;;;;5.52;45.74;101417.67;106785;1261;25364;-51
2024/01/14 01:01:44;;;;;;;24.20;16.60;;;;;;;5.50;45.80;101415.58;105887;1264;1003101;-51
2024/01/14 01:04:11;;;;;;;27.00;17.40;;;;;;;5.50;45.86;101410.26;105916;1262;1002985;-51
2024/01/14 01:06:38;;;;;;;22.70;17.10;;;;;;;5.49;45.89;101405.77;106634;1262;25226;-51
2024/01/14 01:09:06;;;;;;;24.50;16.70;;;;;;;5.49;45.99;101400.61;106666;1262;25479;-51
2024/01/14 01:11:33;;;;;;;21.80;16.00;;;;;;;5.51;46.16;101392.54;105832;1262;1003066;-51
2024/01/14 01:14:00;;;;;;;26.40;16.90;;;;;;;5.53;46.18;101381.20;105902;1265;1003247;-51
2024/01/14 01:16:27;;;;;;;22.70;16.60;;;;;;;5.56;46.21;101374.52;105736;1274;1003622;-50
2024/01/14 01:18:54;;;;;;;24.90;17.90;;;;;;;5.58;46.12;101371.79;106349;1278;25406;-51
2024/01/14 01:21:22;;;;;;;22.60;16.70;;;;;;;5.59;46.25;101371.45;106395;1265;25321;-50
2024/01/14 01:23:49;;;;;;;26.20;17.30;;;;;;;5.59;46.24;101370.92;105930;1262;1003767;-50
2024/01/14 01:26:16;;;;;;;27.00;18.10;;;;;;;5.59;46.17;101377.63;106560;1259;25327;-51
2024/01/14 01:28:44;;;;;;;23.90;17.20;;;;;;;5.58;46.29;101373.34;106382;1265;25345;-51
2024/01/14 01:31:11;;;;;;;24.60;17.70;;;;;;;5.58;46.20;101368.86;105538;1265;1002843;-51
2024/01/14 01:33:39;;;;;;;24.40;17.80;;;;;;;5.58;46.41;101364.56;106264;1263;25418;-50
2024/01/14 01:36:06;;;;;;;26.10;17.60;;;;;;;5.61;46.45;101361.48;106528;1262;25360;-51
2024/01/14 01:38:34;;;;;;;26.20;17.90;;;;;;;5.65;46.45;101359.45;105918;1262;1003744;-50
2024/01/14 01:41:01;;;;;;;23.60;16.70;;;;;;;5.65;46.25;101357.90;106595;1272;25341;-51
2024/01/14 01:43:29;;;;;;;24.50;17.80;;;;;;;5.65;46.18;101359.09;105892;1262;1003657;-51
2024/01/14 01:45:56;;;;;;;24.10;17.20;;;;;;;5.64;46.14;101352.90;105628;1270;1003502;-51
2024/01/14 01:48:23;;;;;;;27.90;18.20;;;;;;;5.62;46.17;101346.86;105817;1263;1003414;-51
2024/01/14 01:50:51;;;;;;;30.40;19.80;;;;;;;5.59;46.10;101343.57;106339;1268;25342;-51
2024/01/14 01:53:20;;;;;;;25.50;18.30;;;;;;;5.57;46.10;101340.45;106608;1262;25481;-50
2024/01/14 01:55:46;;;;;;;28.00;19.70;;;;;;;5.57;46.22;101339.58;105852;1260;1002881;-51
2024/01/14 01:58:13;;;;;;;27.60;19.00;;;;;;;5.58;46.31;101333.23;106417;1265;25351;-50
2024/01/14 02:00:40;;;;;;;24.80;17.60;;;;;;;5.61;46.30;101330.15;106720;1262;24191;-51
2024/01/14 02:03:09;;;;;;;24.20;17.70;;;;;;;5.61;46.30;101328.44;105955;1262;1003157;-51
2024/01/14 02:05:39;;;;;;;27.50;18.50;;;;;;;5.57;46.07;101324.96;106458;1278;25325;-51
2024/01/14 02:08:06;;;;;;;24.20;17.80;;;;;;;5.54;46.09;101328.39;106757;1262;22660;-50
2024/01/14 02:10:34;;;;;;;24.80;17.60;;;;;;;5.51;46.15;101325.79;106744;1262;25360;-51
2024/01/14 02:13:00;;;;;;;24.10;17.20;;;;;;;5.46;45.98;101335.89;106229;1272;25437;-51
2024/01/14 02:15:27;;;;;;;26.00;18.00;;;;;;;5.40;46.13;101336.02;106744;1269;23154;-51
2024/01/14 02:17:55;;;;;;;24.60;17.00;;;;;;;5.35;46.23;101333.02;106620;1262;25395;-50
2024/01/14 02:20:22;;;;;;;23.60;17.20;;;;;;;5.32;46.42;101328.72;106444;1264;24370;-51
2024/01/14 02:22:49;;;;;;;24.20;17.30;;;;;;;5.29;46.56;101321.80;106031;1259;1002843;-51
2024/01/14 02:25:16;;;;;;;22.30;16.80;;;;;;;5.22;46.89;101319.34;106010;1262;1003014;-51
2024/01/14 02:27:43;;;;;;;24.60;17.40;;;;;;;5.20;47.15;101318.80;106731;1261;25363;-51
2024/01/14 02:30:11;;;;;;;28.30;18.00;;;;;;;5.21;47.15;101312.63;106736;1262;25510;-51
2024/01/14 02:32:39;;;;;;;24.70;17.20;;;;;;;5.22;47.27;101310.56;105990;1259;1003504;-50
2024/01/14 02:35:06;;;;;;;25.40;17.50;;;;;;;5.24;47.11;101305.94;106483;1266;25328;-50
2024/01/14 02:37:33;;;;;;;26.50;18.00;;;;;;;5.25;47.14;101301.30;105973;1262;1003676;-51
2024/01/14 02:40:00;;;;;;;25.40;17.70;;;;;;;5.26;47.17;101300.10;106835;1259;25490;-51
2024/01/14 02:42:28;;;;;;;25.60;18.20;;;;;;;5.27;47.00;101297.71;106686;1257;25341;-51
2024/01/14 02:44:55;;;;;;;24.50;17.20;;;;;;;5.28;47.11;101294.95;106769;1259;25581;-51
2024/01/14 02:47:22;;;;;;;24.90;18.10;;;;;;;5.31;47.19;101293.08;106015;1262;1002901;-51
2024/01/14 02:49:49;;;;;;;21.00;16.50;;;;;;;5.34;47.02;101295.53;106032;1268;1003191;-51
2024/01/14 02:52:16;;;;;;;23.30;16.20;;;;;;;5.36;46.90;101293.48;106556;1262;25341;-50
2024/01/14 02:54:45;;;;;;;24.40;17.20;;;;;;;5.38;46.78;101288.52;106828;1262;25357;-51
2024/01/14 02:57:12;;;;;;;24.40;17.40;;;;;;;5.38;46.69;101290.23;105995;1262;1003356;-51
2024/01/14 02:59:39;;;;;;;27.20;18.40;;;;;;;5.36;46.49;101292.27;106436;1266;25491;-50
2024/01/14 03:02:06;;;;;;;29.40;20.00;;;;;;;5.33;46.51;101291.56;106711;1260;25366;-51
2024/01/14 03:04:33;;;;;;;32.30;20.40;;;;;;;5.30;46.54;101289.65;106521;1272;25459;-51
2024/01/14 03:07:00;;;;;;;25.20;18.90;;;;;;;5.27;46.68;101283.78;105644;1279;1003049;-50
2024/01/14 03:09:28;;;;;;;26.80;19.60;;;;;;;5.26;46.57;101281.52;106749;1261;25456;-50
2024/01/14 03:11:55;;;;;;;27.30;17.90;;;;;;;5.26;46.66;101275.17;106709;1262;25363;-51
2024/01/14 03:14:22;;;;;;;25.20;18.10;;;;;;;5.28;46.53;101275.52;106567;1273;25363;-51
2024/01/14 03:16:49;;;;;;;27.80;18.80;;;;;;;5.30;46.40;101275.54;105988;1262;1002888;-51
2024/01/14 03:19:16;;;;;;;27.00;18.60;;;;;;;5.30;46.25;101271.75;105999;1263;1003126;-51
2024/01/14 03:21:43;;;;;;;25.40;18.10;;;;;;;5.30;46.19;101263.84;106008;1269;1002983;-51
2024/01/14 03:24:10;;;;;;;26.40;18.50;;;;;;;5.29;46.19;101255.23;106072;1260;1003206;-51
2024/01/14 03:26:37;;;;;;;24.30;18.40;;;;;;;5.27;46.11;101250.23;106774;1259;25367;-51
2024/01/14 03:29:05;;;;;;;26.30;19.10;;;;;;;5.26;46.03;101260.02;106573;1265;25559;-51
2024/01/14 03:31:32;;;;;;;27.40;19.10;;;;;;;5.23;46.21;101257.77;106862;1264;25356;-51
2024/01/14 03:33:59;;;;;;;30.70;18.90;;;;;;;5.23;46.09;101259.33;106086;1256;1003522;-51
2024/01/14 03:36:26;;;;;;;25.10;18.20;;;;;;;5.24;45.95;101257.09;106771;1262;25376;-51
2024/01/14 03:38:54;;;;;;;26.00;17.80;;;;;;;5.27;45.74;101257.29;106719;1259;25487;-51
2024/01/14 03:41:21;;;;;;;24.00;17.20;;;;;;;5.29;45.59;101254.55;106720;1262;25367;-51
2024/01/14 03:43:48;;;;;;;26.10;18.40;;;;;;;5.28;45.33;101253.68;106350;1265;25357;-51
2024/01/14 03:46:15;;;;;;;23.90;16.10;;;;;;;5.26;45.15;101253.14;106038;1259;1016184;-51
2024/01/14 03:48:42;;;;;;;23.80;17.10;;;;;;;5.22;45.14;101243.48;105949;1259;1002634;-51
2024/01/14 03:51:09;;;;;;;24.50;17.70;;;;;;;5.19;45.15;101247.92;106124;1263;1002864;-51
2024/01/14 03:53:36;;;;;;;23.70;17.50;;;;;;;5.13;45.09;101254.25;105847;1265;1002899;-51
2024/01/14 03:56:04;;;;;;;27.10;17.80;;;;;;;5.10;45.01;101257.14;106053;1259;1003353;-52
2024/01/14 03:58:31;;;;;;;26.70;18.40;;;;;;;5.04;44.91;101252.97;106705;1268;25356;-53
2024/01/14 04:00:58;;;;;;;26.90;18.50;;;;;;;5.00;44.98;101248.98;106712;1262;22532;-52
2024/01/14 04:03:25;;;;;;;25.70;17.20;;;;;;;4.95;45.19;101247.56;106683;1263;25459;-51
2024/01/14 04:05:53;;;;;;;29.50;18.80;;;;;;;4.90;45.37;101248.20;105654;1265;1003658;-52
2024/01/14 04:08:21;;;;;;;27.50;17.60;;;;;;;4.88;45.33;101244.56;106266;1269;25366;-51
2024/01/14 04:10:48;;;;;;;27.00;18.70;;;;;;;4.87;45.43;101240.43;106475;1259;25333;-52
2024/01/14 04:13:16;;;;;;;28.50;18.90;;;;;;;4.87;45.45;101239.92;106083;1268;1003456;-52
2024/01/14 04:15:42;;;;;;;26.20;18.10;;;;;;;4.84;45.47;101242.65;106243;1271;23869;-51
2024/01/14 04:18:09;;;;;;;27.40;18.50;;;;;;;4.81;45.69;101241.42;106273;1275;24213;-51
2024/01/14 04:20:37;;;;;;;27.40;18.50;;;;;;;4.76;45.56;101238.80;105681;1262;1003405;-51
2024/01/14 04:23:04;;;;;;;27.80;18.10;;;;;;;4.72;45.54;101239.95;106045;1276;578526;-51
2024/01/14 04:25:31;;;;;;;26.80;18.50;;;;;;;4.68;45.67;101233.91;106736;1260;25367;-51
2024/01/14 04:28:01;;;;;;;27.50;17.90;;;;;;;4.67;45.71;101231.83;106773;1262;24360;-52
2024/01/14 04:30:29;;;;;;;25.90;17.40;;;;;;;4.66;45.79;101227.17;106607;1262;25338;-51
2024/01/14 04:32:57;;;;;;;27.30;18.10;;;;;;;4.65;45.70;101223.91;106032;1259;1003669;-51
2024/01/14 04:35:25;;;;;;;26.70;18.30;;;;;;;4.63;45.81;101228.88;106762;1260;23867;-52
2024/01/14 04:37:52;;;;;;;27.60;18.20;;;;;;;4.61;45.91;101229.20;106833;1266;25407;-52
2024/01/14 04:40:19;;;;;;;25.60;17.70;;;;;;;4.58;45.79;101231.73;106717;1260;25342;-52
2024/01/14 04:42:46;;;;;;;27.10;19.10;;;;;;;4.54;45.84;101228.09;106784;1264;25277;-52
2024/01/14 04:45:16;;;;;;;28.40;19.50;;;;;;;4.49;45.66;101225.29;106694;1267;25342;-51
2024/01/14 04:47:43;;;;;;;28.10;19.20;;;;;;;4.44;45.96;101221.11;106738;1268;22554;-52
2024/01/14 04:50:10;;;;;;;31.40;20.00;;;;;;;4.41;46.32;101220.41;105860;1263;1003747;-52
2024/01/14 04:52:37;;;;;;;27.20;18.70;;;;;;;4.40;46.19;101218.48;106076;1263;1003672;-51
2024/01/14 04:55:06;;;;;;;25.90;18.10;;;;;;;4.39;46.30;101212.82;106340;1261;1003217;-51
2024/01/14 04:57:33;;;;;;;27.00;17.60;;;;;;;4.39;46.24;101214.18;106410;1265;25367;-51
2024/01/14 05:00:01;;;;;;;26.30;18.30;;;;;;;4.38;45.94;101211.26;106541;1265;25488;-51
2024/01/14 05:02:28;;;;;;;27.70;18.30;;;;;;;4.35;46.09;101208.65;106775;1262;25328;-51
2024/01/14 05:04:55;;;;;;;28.20;18.10;;;;;;;4.32;46.25;101201.91;106773;1266;25400;-52
2024/01/14 05:07:22;;;;;;;28.00;19.20;;;;;;;4.29;46.08;101202.23;106762;1273;25328;-52
2024/01/14 05:09:52;;;;;;;26.90;18.50;;;;;;;4.25;46.23;101198.93;106775;1260;22526;-52
2024/01/14 05:12:19;;;;;;;27.40;18.30;;;;;;;4.23;46.31;101197.70;106777;1260;25334;-52
2024/01/14 05:14:46;;;;;;;28.60;18.80;;;;;;;4.21;46.46;101199.22;106866;1270;25378;-51
2024/01/14 05:17:13;;;;;;;29.10;18.50;;;;;;;4.19;46.31;101200.05;106679;1266;25347;-51
2024/01/14 05:19:40;;;;;;;27.80;18.30;;;;;;;4.18;46.53;101195.42;106786;1276;25487;-51
2024/01/14 05:22:09;;;;;;;27.40;18.30;;;;;;;4.19;46.22;101189.41;106626;1275;22646;-52
2024/01/14 05:24:36;;;;;;;25.00;17.90;;;;;;;4.19;46.22;101187.70;106770;1267;25434;-51
2024/01/14 05:27:03;;;;;;;26.90;18.10;;;;;;;4.18;46.26;101188.20;106063;1263;1003245;-51
2024/01/14 05:29:30;;;;;;;30.80;19.70;;;;;;;4.16;46.19;101183.55;106727;1260;24382;-51
2024/01/14 05:31:58;;;;;;;25.30;17.90;;;;;;;4.14;46.58;101182.66;106802;1263;25367;-52
2024/01/14 05:34:25;;;;;;;28.60;18.40;;;;;;;4.13;46.24;101181.63;106849;1262;25418;-52
2024/01/14 05:36:53;;;;;;;27.50;19.00;;;;;;;4.12;46.50;101179.55;106051;1263;1002994;-52
2024/01/14 05:39:20;;;;;;;28.70;19.30;;;;;;;4.12;46.45;101181.45;106524;1271;22527;-52
2024/01/14 05:41:46;;;;;;;27.60;18.70;;;;;;;4.12;46.45;101183.51;105953;1262;1003113;-51
2024/01/14 05:44:13;;;;;;;30.60;20.70;;;;;;;4.12;46.43;101182.30;106037;1263;1003416;-51
2024/01/14 05:46:41;;;;;;;26.40;18.90;;;;;;;4.11;46.27;101187.11;106780;1272;25366;-51
2024/01/14 05:49:08;;;;;;;30.40;19.60;;;;;;;4.09;46.37;101182.45;106725;1262;25338;-51
2024/01/14 05:51:36;;;;;;;26.50;18.70;;;;;;;4.08;46.19;101179.16;106572;1269;25398;-51
2024/01/14 05:54:03;;;;;;;27.10;19.50;;;;;;;4.05;46.23;101172.77;106565;1264;24816;-51
2024/01/14 05:56:30;;;;;;;28.60;20.40;;;;;;;4.01;46.03;101168.27;106008;1260;1002912;-51
2024/01/14 05:59:00;;;;;;;31.10;20.00;;;;;;;3.99;46.17;101169.96;106795;1262;25376;-51
2024/01/14 06:01:28;;;;;;;33.90;21.30;;;;;;;3.97;46.07;101170.10;105851;1260;1002864;-53
2024/01/14 06:03:56;;;;;;;27.30;19.10;;;;;;;3.97;46.27;101169.77;105746;1265;1003636;-51
2024/01/14 06:06:23;;;;;;;27.50;19.10;;;;;;;3.98;46.54;101172.18;105943;1261;1003111;-51
2024/01/14 06:08:50;;;;;;;28.30;19.70;;;;;;;4.00;46.14;101169.98;106509;1266;25427;-51
2024/01/14 06:11:18;;;;;;;26.90;18.90;;;;;;;4.02;46.25;101167.77;106733;1262;25458;-51
2024/01/14 06:13:45;;;;;;;28.20;18.80;;;;;;;3.97;46.14;101161.88;105967;1262;1003586;-51
2024/01/14 06:16:12;;;;;;;27.70;18.50;;;;;;;3.88;46.34;101157.81;105977;1263;1002850;-51
2024/01/14 06:18:39;;;;;;;28.70;18.40;;;;;;;3.91;46.63;101153.73;105777;1273;1003029;-53
2024/01/14 06:21:06;;;;;;;33.10;19.80;;;;;;;3.95;46.80;101151.55;106682;1262;25516;-51
2024/01/14 06:23:34;;;;;;;32.50;21.10;;;;;;;4.03;47.02;101148.20;106790;1263;25360;-51
2024/01/14 06:26:01;;;;;;;30.00;20.30;;;;;;;4.13;46.89;101145.05;106807;1269;24380;-51
2024/01/14 06:28:28;;;;;;;27.80;18.10;;;;;;;4.25;46.59;101145.00;106002;1261;1003390;-52
2024/01/14 06:30:55;;;;;;;28.40;18.70;;;;;;;4.41;46.30;101143.77;106747;1270;24214;-51
2024/01/14 06:33:22;;;;;;;28.60;18.70;;;;;;;4.62;45.67;101141.40;106764;1263;25446;-51
2024/01/14 06:35:51;;;;;;;25.60;18.20;;;;;;;4.75;45.56;101139.27;106041;1272;1003308;-53
2024/01/14 06:38:19;;;;;;;25.60;18.10;;;;;;;4.82;45.03;101134.34;106720;1269;25356;-52
2024/01/14 06:40:46;;;;;;;25.10;18.20;;;;;;;4.87;45.03;101132.48;106805;1271;25336;-52
2024/01/14 06:43:30;;;;;;;27.20;18.80;;;;;;;4.90;44.81;101133.72;106776;1269;25359;-52
2024/01/14 06:45:58;;;;;;;27.10;18.40;;;;;;;4.90;44.57;101134.40;106684;1270;25331;-53
2024/01/14 06:48:25;;;;;;;26.20;18.50;;;;;;;4.89;44.71;101133.38;105750;1276;1003610;-52
2024/01/14 06:50:52;;;;;;;30.20;19.60;;;;;;;4.87;44.64;101134.21;106791;1263;23910;-53
2024/01/14 06:53:20;;;;;;;30.90;20.90;;;;;;;4.87;44.55;101128.02;105818;1268;1002981;-51
2024/01/14 06:55:47;;;;;;;32.20;20.70;;;;;;;4.87;44.78;101120.47;106634;1262;25488;-53
2024/01/14 06:58:15;;;;;;;27.60;19.30;;;;;;;4.90;44.79;101120.99;106424;1279;25346;-51
2024/01/14 07:00:44;;;;;;;30.20;18.30;;;;;;;4.92;44.93;101121.01;106782;1269;25427;-52
2024/01/14 07:03:11;;;;;;;26.50;18.50;;;;;;;4.98;44.84;101117.44;106160;1260;1002468;-52
2024/01/14 07:05:38;;;;;;;25.40;17.40;;;;;;;5.04;44.74;101110.95;106791;1262;25356;-52
2024/01/14 07:08:05;;;;;;;26.60;19.00;;;;;;;5.10;44.72;101109.79;106524;1265;25430;-52
2024/01/14 07:10:32;;;;;;;27.30;18.70;;;;;;;5.19;44.58;101107.25;106481;1262;23003;-52
2024/01/14 07:12:59;;;;;;;24.60;16.60;;;;;;;5.26;44.40;101106.94;105723;1270;1014705;-52
2024/01/14 07:15:26;;;;;;;27.40;18.60;;;;;;;5.32;44.32;101110.23;105705;1267;1003812;-52
2024/01/14 07:17:54;;;;;;;25.20;17.60;;;;;;;5.29;44.31;101105.24;106501;1266;25328;-52
2024/01/14 07:20:26;;;;;;;24.40;17.40;;;;;;;5.40;44.09;101104.95;106523;1265;25494;-50
2024/01/14 07:22:54;;;;;;;26.00;19.10;;;;;;;5.44;43.98;101103.44;106424;1275;25344;-51
2024/01/14 07:25:21;;;;;;;25.40;18.60;;;;;;;5.48;44.08;101105.86;105699;1265;1002919;-56
2024/01/14 07:27:48;;;;;;;27.10;18.30;;;;;;;5.51;44.06;101105.87;106392;1265;25328;-53
2024/01/14 07:30:18;;;;;;;26.50;17.50;;;;;;;5.55;44.24;101107.95;106718;1265;25328;-50
2024/01/14 07:32:48;;;;;;;24.00;17.40;;;;;;;5.60;44.19;101105.06;106360;1273;25328;-51
2024/01/14 07:35:17;;;;;;;24.70;16.90;;;;;;;5.67;43.96;101107.48;106724;1260;25405;-51
2024/01/14 07:37:44;;;;;;;27.20;17.70;;;;;;;5.72;43.87;101099.40;105695;1263;1003265;-51
2024/01/14 07:40:11;;;;;;;29.30;18.90;;;;;;;5.76;43.74;101092.71;105977;1270;1003824;-52
2024/01/14 07:42:38;;;;;;;25.70;19.00;;;;;;;5.81;43.61;101093.41;106679;1261;25348;-53
2024/01/14 07:45:07;;;;;;;26.80;18.90;;;;;;;5.84;43.51;101094.13;106762;1276;22651;-52
2024/01/14 07:47:35;;;;;;;27.80;18.80;;;;;;;5.84;43.69;101090.53;106740;1260;22683;-52
2024/01/14 07:50:03;;;;;;;24.20;17.80;;;;;;;5.85;43.87;101091.58;106806;1264;25339;-52
2024/01/14 07:52:30;;;;;;;26.50;19.20;;;;;;;5.85;44.08;101086.23;105666;1273;1002596;-52
2024/01/14 07:54:57;;;;;;;30.20;21.00;;;;;;;5.86;44.34;101086.75;106510;1273;25472;-52
2024/01/14 07:57:24;;;;;;;37.50;22.60;;;;;;;5.88;44.61;101084.52;106713;1266;25526;-50
2024/01/14 07:59:51;;;;;;;40.10;24.30;;;;;;;5.92;44.98;101083.48;106507;1273;25485;-52
2024/01/14 08:02:18;;;;;;;33.50;21.90;;;;;;;5.97;45.26;101077.13;105813;1263;1003814;-52
2024/01/14 08:04:45;;;;;;;34.10;22.50;;;;;;;6.04;45.70;101077.50;106620;1266;25424;-52
2024/01/14 08:07:14;;;;;;;30.90;22.00;;;;;;;6.12;45.97;101075.27;105807;1272;1003011;-51
2024/01/14 08:09:42;;;;;;;27.00;19.60;;;;;;;6.20;46.40;101072.34;106652;1274;25391;-51
2024/01/14 08:12:09;;;;;;;26.30;17.80;;;;;;;6.28;46.99;101062.55;106639;1272;25342;-51
2024/01/14 08:14:36;;;;;;;26.50;18.80;;;;;;;6.35;47.77;101059.79;105849;1279;1003717;-54
2024/01/14 08:17:03;;;;;;;30.60;20.40;;;;;;;6.44;48.11;101058.23;106596;1263;25331;-52
2024/01/14 08:19:30;;;;;;;28.50;20.20;;;;;;;6.54;48.31;101059.27;106608;1263;25444;-51
2024/01/14 08:21:57;;;;;;;26.00;18.20;;;;;;;6.67;48.51;101058.39;106311;1279;25312;-51
2024/01/14 08:24:25;;;;;;;26.70;16.90;;;;;;;6.79;48.33;101055.61;106622;1264;25350;-51
2024/01/14 08:26:52;;;;;;;22.50;16.10;;;;;;;6.92;47.76;101057.14;106612;1262;25284;-51
2024/01/14 08:29:19;;;;;;;20.80;16.20;;;;;;;7.04;47.31;101054.52;105878;1272;1016311;-51
2024/01/14 08:31:52;;;;;;;24.40;17.80;;;;;;;7.15;47.04;101049.66;106804;1273;22541;-52
2024/01/14 08:34:19;;;;;;;26.60;18.10;;;;;;;7.24;46.81;101051.35;106699;1262;22838;-52
2024/01/14 08:36:48;;;;;;;27.20;20.20;;;;;;;7.34;46.47;101045.97;106730;1263;25331;-52
2024/01/14 08:39:15;;;;;;;25.70;18.20;;;;;;;7.40;46.18;101046.11;106686;1269;25584;-52
2024/01/14 08:41:42;;;;;;;25.50;17.80;;;;;;;7.45;46.07;101039.35;106784;1272;25328;-51
2024/01/14 08:44:10;;;;;;;28.30;18.70;;;;;;;7.50;45.89;101038.13;106726;1266;23423;-51
2024/01/14 08:46:41;;;;;;;28.70;18.60;;;;;;;7.55;45.91;101032.40;106489;1264;25346;-51
2024/01/14 08:49:08;;;;;;;35.00;22.30;;;;;;;7.62;45.78;101025.30;106619;1264;22545;-51
2024/01/14 08:51:35;;;;;;;28.50;19.70;;;;;;;7.70;45.58;101022.48;106782;1258;23275;-51
2024/01/14 08:54:02;;;;;;;26.80;18.40;;;;;;;7.77;45.29;101018.81;106680;1267;25318;-51
2024/01/14 08:56:30;;;;;;;23.70;17.10;;;;;;;7.84;45.11;101015.15;106092;1273;1003773;-51
2024/01/14 08:58:57;;;;;;;20.80;15.60;;;;;;;7.89;44.96;101011.48;106526;1264;25376;-51
2024/01/14 09:01:26;;;;;;;25.10;14.80;;;;;;;7.94;45.15;101007.83;106029;1270;1002692;-51
2024/01/14 09:03:53;;;;;;;22.80;15.30;;;;;;;7.97;44.85;100998.83;105980;1270;1003512;-51
2024/01/14 09:06:21;;;;;;;23.00;14.20;;;;;;;7.99;44.82;100994.31;106854;1269;25387;-51
2024/01/14 09:08:48;;;;;;;15.70;12.40;;;;;;;8.02;44.71;100989.81;106408;1273;25353;-51
2024/01/14 09:11:15;;;;;;;17.00;12.30;;;;;;;8.04;44.61;100985.30;106760;1270;25457;-52
2024/01/14 09:13:45;;;;;;;15.70;11.90;;;;;;;8.07;44.19;100976.97;106782;1272;22545;-51
2024/01/14 09:16:12;;;;;;;15.50;12.00;;;;;;;8.12;44.35;100974.86;106739;1260;25340;-51
2024/01/14 09:18:39;;;;;;;14.40;11.80;;;;;;;8.15;44.05;100967.92;106732;1265;25328;-50
2024/01/14 09:21:06;;;;;;;16.00;11.50;;;;;;;8.18;44.61;100963.40;105989;1273;1003065;-52
2024/01/14 09:23:34;;;;;;;17.30;11.40;;;;;;;8.22;45.01;100961.29;106819;1272;25398;-53
2024/01/14 09:26:01;;;;;;;16.70;11.20;;;;;;;8.25;45.10;100956.10;105705;1277;1003097;-52
2024/01/14 09:28:28;;;;;;;19.10;11.80;;;;;;;8.26;45.33;100953.35;106368;1261;25431;-52
2024/01/14 09:30:55;;;;;;;16.30;11.50;;;;;;;8.28;45.16;100944.52;106440;1269;24214;-52
2024/01/14 09:33:22;;;;;;;19.60;12.20;;;;;;;8.28;45.65;100944.34;106338;1273;25419;-51
2024/01/14 09:35:50;;;;;;;17.70;12.00;;;;;;;8.30;45.78;100941.20;106245;1273;24224;-52
2024/01/14 09:38:17;;;;;;;18.70;11.70;;;;;;;8.33;46.20;100932.70;105373;1263;1003322;-52
2024/01/14 09:40:44;;;;;;;16.80;12.20;;;;;;;8.36;45.99;100934.23;105503;1277;1003651;-51
2024/01/14 09:43:12;;;;;;;16.60;11.60;;;;;;;8.39;46.02;100928.35;106422;1273;25347;-52
2024/01/14 09:45:40;;;;;;;16.80;11.60;;;;;;;8.42;46.05;100921.39;105956;1273;1002721;-52
2024/01/14 09:48:15;;;;;;;14.60;10.70;;;;;;;8.43;45.91;100921.39;106037;1273;1003540;-52
2024/01/14 09:50:43;;;;;;;18.70;12.00;;;;;;;8.43;45.36;100919.13;106707;1273;22541;-51
2024/01/14 09:53:11;;;;;;;16.90;11.30;;;;;;;8.43;45.33;100913.27;106482;1276;25351;-51
2024/01/14 09:55:38;;;;;;;17.70;12.40;;;;;;;8.45;45.53;100902.70;105922;1274;1002910;-51
2024/01/14 09:58:06;;;;;;;17.20;13.20;;;;;;;8.48;45.71;100899.36;106750;1257;25359;-50
2024/01/14 10:00:33;;;;;;;17.80;13.00;;;;;;;8.54;45.65;100898.08;106896;1260;25472;-51
2024/01/14 10:03:01;;;;;;;17.00;13.30;;;;;;;8.60;45.29;100892.66;106419;1260;22615;-52
2024/01/14 10:05:32;;;;;;;;;;;;;;;8.65;44.84;100887.40;106836;1273;22539;-50
2024/01/14 10:08:00;;;;;;;16.10;13.20;;;;;;;8.69;45.07;100892.72;106805;1273;25394;-52
2024/01/14 10:10:28;;;;;;;19.10;14.80;;;;;;;8.70;44.87;100893.05;106009;1257;1002933;-52
2024/01/14 10:12:55;;;;;;;17.90;13.00;;;;;;;8.71;44.75;100889.76;105754;1276;1003386;-52
2024/01/14 10:15:25;;;;;;;18.30;14.70;;;;;;;8.68;44.26;100888.59;106589;1273;25477;-52
2024/01/14 10:17:52;;;;;;;18.20;14.20;;;;;;;8.60;44.37;100878.65;105993;1258;1003703;-52
2024/01/14 10:20:20;;;;;;;19.50;14.60;;;;;;;8.54;44.20;100875.09;106410;1276;25331;-52
2024/01/14 10:22:48;;;;;;;17.90;14.20;;;;;;;8.49;44.14;100869.96;105697;1267;1003750;-52
2024/01/14 10:25:15;;;;;;;20.00;15.60;;;;;;;8.47;44.25;100871.55;106263;1264;25489;-52
2024/01/14 10:27:43;;;;;;;22.10;15.50;;;;;;;8.42;44.13;100866.77;106478;1261;25328;-52
2024/01/14 10:30:11;;;;;;;18.60;14.80;;;;;;;8.38;44.07;100856.60;105731;1261;1002495;-50
2024/01/14 10:32:41;;;;;;;19.70;15.90;;;;;;;8.36;44.18;100853.16;106436;1260;24371;-53
2024/01/14 10:35:28;;;;;;;20.60;15.00;;;;;;;8.35;44.43;100845.23;106502;1275;23240;-52
2024/01/14 10:37:57;;;;;;;19.50;15.30;;;;;;;8.37;44.52;100844.17;106368;1279;25412;-52
2024/01/14 10:40:24;;;;;;;20.50;15.60;;;;;;;8.39;44.60;100842.42;106219;1282;24217;-52
2024/01/14 10:42:52;;;;;;;19.90;16.10;;;;;;;8.41;44.49;100830.84;106511;1275;25383;-52
2024/01/14 10:45:19;;;;;;;22.20;16.60;;;;;;;8.43;44.39;100829.23;106550;1276;24445;-52
2024/01/14 10:47:47;;;;;;;22.80;17.10;;;;;;;8.45;44.34;100825.24;106484;1275;25379;-52
2024/01/14 10:50:17;;;;;;;18.30;14.90;;;;;;;8.46;44.49;100826.95;106383;1280;25373;-52
2024/01/14 10:52:49;;;;;;;19.00;15.10;;;;;;;8.48;44.27;100819.32;106366;1280;22536;-51
2024/01/14 10:55:58;;;;;;;18.70;14.00;;;;;;;8.49;43.91;100820.88;106740;1272;22589;-52
2024/01/14 10:58:29;;;;;;;17.90;13.60;;;;;;;8.47;43.65;100812.41;106150;1280;25348;-53
2024/01/14 11:00:58;;;;;;;18.70;13.70;;;;;;;8.44;43.68;100811.61;105467;1280;1003545;-51
2024/01/14 11:03:29;;;;;;;19.80;14.40;;;;;;;8.37;43.46;100809.26;106251;1280;22542;-51
2024/01/14 11:05:57;;;;;;;18.20;14.30;;;;;;;8.31;43.47;100807.25;106222;1280;25431;-52